Time;durP1;ratioP1;P1;durP2;ratioP2;P2;SDS_P1;SDS_P2;PMS_P1;PMS_P2;Temp;Humidity;BMP_temperature;BMP_pressure;BME280_temperature;BME280_humidity;BME280_pressure;Samples;Min_cycle;Max_cycle;Signal;HPM_P1;HPM_P2
2022/01/27 00:05:17;;;;;;;47.92;14.82;;;-0.80;99.90;;;;;;5052691;28;20039;-84
2022/01/27 00:07:45;;;;;;;53.30;15.40;;;-0.80;99.90;;;;;;5059520;28;20032;-83
2022/01/27 00:10:28;;;;;;;50.38;14.68;;;-0.80;99.90;;;;;;5074092;28;20043;-83
2022/01/27 00:12:55;;;;;;;53.70;14.77;;;-0.80;99.90;;;;;;5074539;28;20113;-83
2022/01/27 00:15:28;;;;;;;49.13;14.55;;;-0.80;99.90;;;;;;5072726;28;20101;-83
2022/01/27 00:17:59;;;;;;;53.97;15.15;;;-0.80;99.90;;;;;;5071572;28;20403;-83
2022/01/27 00:20:27;;;;;;;38.67;13.10;;;-0.80;99.90;;;;;;5075408;28;20482;-84
2022/01/27 00:22:56;;;;;;;52.60;15.10;;;-0.80;99.90;;;;;;5073475;28;20589;-83
2022/01/27 00:25:25;;;;;;;49.03;13.57;;;-0.80;99.90;;;;;;5041425;28;20461;-83
2022/01/27 00:27:56;;;;;;;46.33;13.75;;;-0.80;99.90;;;;;;5091390;28;20121;-83
2022/01/27 00:30:22;;;;;;;50.90;14.30;;;-0.80;99.90;;;;;;5057984;28;20385;-83
2022/01/27 00:32:47;;;;;;;48.40;14.07;;;-0.80;99.90;;;;;;5091599;28;20036;-83
2022/01/27 00:35:13;;;;;;;50.72;13.98;;;-0.80;99.90;;;;;;5037662;28;20044;-83
2022/01/27 00:37:42;;;;;;;42.28;13.05;;;-0.80;99.90;;;;;;5060079;28;20515;-84
2022/01/27 00:40:15;;;;;;;60.78;14.48;;;-0.80;99.90;;;;;;5074041;28;20716;-83
2022/01/27 00:42:41;;;;;;;56.50;13.27;;;-0.90;99.90;;;;;;5073821;28;20016;-84
2022/01/27 00:45:08;;;;;;;51.63;14.77;;;-0.80;99.90;;;;;;5091011;28;20028;-83
2022/01/27 00:47:34;;;;;;;59.35;13.88;;;-0.90;99.90;;;;;;5073425;28;20093;-83
2022/01/27 00:49:59;;;;;;;54.92;16.38;;;-0.90;99.90;;;;;;5055654;28;20036;-83
2022/01/27 00:52:37;;;;;;;47.85;13.68;;;-0.90;99.90;;;;;;5073826;28;20024;-83
2022/01/27 00:55:12;;;;;;;49.38;13.48;;;-0.90;99.90;;;;;;5058252;28;20044;-83
2022/01/27 00:58:02;;;;;;;48.10;14.85;;;-0.90;99.90;;;;;;5070324;28;20034;-84
2022/01/27 01:00:39;;;;;;;56.55;15.27;;;-0.90;99.90;;;;;;5091678;28;20016;-83
2022/01/27 01:03:10;;;;;;;57.92;14.88;;;-0.90;99.90;;;;;;5073129;28;20157;-83
2022/01/27 01:16:23;;;;;;;56.55;15.63;;;-1.00;99.90;;;;;;5048608;28;20555;-83
2022/01/27 01:19:06;;;;;;;65.50;15.57;;;-1.00;99.90;;;;;;5075113;28;20073;-83
2022/01/27 01:22:07;;;;;;;54.50;14.75;;;-1.00;99.90;;;;;;5060817;28;20024;-83
2022/01/27 01:32:55;;;;;;;58.38;15.82;;;-1.00;99.90;;;;;;5091874;28;20047;-84
2022/01/27 01:35:39;;;;;;;52.97;14.13;;;-1.00;99.90;;;;;;5074519;28;20027;-83
2022/01/27 01:38:04;;;;;;;51.90;14.77;;;-1.00;99.90;;;;;;5074517;28;20020;-84
2022/01/27 01:40:30;;;;;;;54.15;15.13;;;-1.00;99.90;;;;;;5072203;28;20036;-83
2022/01/27 01:42:56;;;;;;;49.53;13.80;;;-1.00;99.90;;;;;;5052584;28;20044;-83
2022/01/27 01:45:24;;;;;;;47.33;14.77;;;-1.00;99.90;;;;;;5063378;28;20067;-83
2022/01/27 01:47:51;;;;;;;52.83;15.00;;;-1.00;99.90;;;;;;5051617;28;20033;-83
2022/01/27 01:50:20;;;;;;;50.47;14.18;;;-1.00;99.90;;;;;;5070938;28;20028;-83
2022/01/27 01:52:46;;;;;;;45.63;13.88;;;-1.00;99.90;;;;;;5071918;28;20043;-83
2022/01/27 01:55:15;;;;;;;65.65;16.63;;;-1.00;99.90;;;;;;5043497;28;20036;-83
2022/01/27 01:57:44;;;;;;;55.05;14.68;;;-1.00;99.90;;;;;;5055275;28;20504;-83
2022/01/27 02:00:11;;;;;;;55.88;15.10;;;-1.00;99.90;;;;;;5035766;28;20036;-83
2022/01/27 02:02:38;;;;;;;61.08;13.95;;;-1.00;99.90;;;;;;5035999;28;20052;-83
2022/01/27 02:05:08;;;;;;;56.00;14.60;;;-1.00;99.90;;;;;;5052599;28;20476;-83
2022/01/27 02:07:54;;;;;;;;;;;-0.90;99.90;;;;;;5037394;28;20524;-83
2022/01/27 02:17:46;;;;;;;49.78;12.13;;;-0.90;99.90;;;;;;5086351;28;19908;-84
2022/01/27 02:18:47;;;;;;;47.03;13.57;;;-1.00;99.90;;;;;;5062321;28;20048;-83
2022/01/27 02:21:13;;;;;;;55.83;17.40;;;-1.00;99.90;;;;;;5043319;28;20032;-83
2022/01/27 02:23:39;;;;;;;54.55;15.70;;;-1.00;99.90;;;;;;5035034;28;20147;-84
2022/01/27 02:26:04;;;;;;;56.45;14.95;;;-1.00;99.90;;;;;;5063940;28;20040;-82
2022/01/27 02:28:30;;;;;;;50.60;13.95;;;-1.00;99.90;;;;;;5038361;28;20453;-84
2022/01/27 02:31:03;;;;;;;51.63;14.18;;;-1.00;99.90;;;;;;5055507;28;20058;-83
2022/01/27 02:33:33;;;;;;;51.88;13.10;;;-1.00;99.90;;;;;;5057791;28;20555;-83
2022/01/27 02:36:03;;;;;;;54.28;14.25;;;-1.00;99.90;;;;;;5071590;28;20051;-83
2022/01/27 02:38:29;;;;;;;48.95;12.88;;;-1.00;99.90;;;;;;5071920;28;20028;-83
2022/01/27 02:41:02;;;;;;;44.75;12.40;;;-1.00;99.90;;;;;;5070885;28;20115;-83
2022/01/27 02:43:34;;;;;;;48.97;14.27;;;-1.00;99.90;;;;;;5090516;28;20048;-84
2022/01/27 02:46:07;;;;;;;47.03;13.70;;;-1.00;99.90;;;;;;5055465;28;20043;-83
2022/01/27 02:48:33;;;;;;;59.38;14.27;;;-1.00;99.90;;;;;;5036144;23;20411;-84
2022/01/27 02:51:05;;;;;;;54.67;14.05;;;-1.00;99.90;;;;;;5024037;28;20040;-84
2022/01/27 02:53:30;;;;;;;51.30;14.27;;;-1.00;99.90;;;;;;5003084;28;20029;-84
2022/01/27 02:55:56;;;;;;;50.22;14.63;;;-1.00;99.90;;;;;;5028075;28;20040;-84
2022/01/27 02:58:21;;;;;;;57.13;15.32;;;-1.00;99.90;;;;;;5015988;28;20115;-84
2022/01/27 03:00:50;;;;;;;51.92;13.23;;;-1.00;99.90;;;;;;5022899;28;20040;-84
2022/01/27 03:03:16;;;;;;;49.85;13.30;;;-1.00;99.90;;;;;;5030206;28;20040;-84
2022/01/27 03:05:44;;;;;;;54.72;13.80;;;-1.00;99.90;;;;;;5045941;28;20032;-84
2022/01/27 03:08:10;;;;;;;58.42;15.77;;;-1.00;99.90;;;;;;5054963;28;20056;-84
2022/01/27 03:10:42;;;;;;;44.35;12.85;;;-1.00;99.90;;;;;;5037283;28;20422;-84
2022/01/27 03:13:09;;;;;;;46.90;12.23;;;-1.00;99.90;;;;;;5054343;28;20028;-84
2022/01/27 03:15:38;;;;;;;46.75;13.70;;;-1.00;99.90;;;;;;5039430;28;20036;-84
2022/01/27 03:18:07;;;;;;;55.13;13.83;;;-1.00;99.90;;;;;;5028870;28;20032;-84
2022/01/27 03:20:39;;;;;;;42.15;13.80;;;-1.00;99.90;;;;;;5017551;28;20087;-84
2022/01/27 03:23:09;;;;;;;51.35;14.80;;;-1.00;99.90;;;;;;5014002;28;20033;-84
2022/01/27 03:25:34;;;;;;;50.78;14.68;;;-1.00;99.90;;;;;;5020327;28;20036;-84
2022/01/27 03:28:02;;;;;;;42.65;12.60;;;-1.00;99.90;;;;;;5026360;28;20142;-84
2022/01/27 03:30:27;;;;;;;45.78;13.40;;;-1.00;99.90;;;;;;5021858;28;20036;-85
2022/01/27 03:32:54;;;;;;;50.60;14.35;;;-1.00;99.90;;;;;;5021424;28;20086;-83
2022/01/27 03:35:31;;;;;;;46.05;14.70;;;-1.00;99.90;;;;;;5021743;28;20505;-84
2022/01/27 03:37:57;;;;;;;54.83;13.52;;;-1.00;99.90;;;;;;5040988;28;20032;-84
2022/01/27 03:40:25;;;;;;;46.95;14.23;;;-1.00;99.90;;;;;;5040929;28;20454;-84
2022/01/27 03:43:02;;;;;;;47.58;13.32;;;-1.00;99.90;;;;;;5036483;28;20060;-84
2022/01/27 03:45:32;;;;;;;41.17;12.40;;;-0.90;99.90;;;;;;5035550;28;20032;-84
2022/01/27 03:47:58;;;;;;;49.20;13.45;;;-1.00;99.90;;;;;;5053630;28;20060;-84
2022/01/27 03:50:31;;;;;;;53.17;14.10;;;-1.00;99.90;;;;;;5036576;28;20051;-84
2022/01/27 03:53:03;;;;;;;42.47;12.65;;;-1.00;99.90;;;;;;5049041;28;20025;-84
2022/01/27 03:55:29;;;;;;;50.85;13.18;;;-1.00;99.90;;;;;;5018098;28;20156;-84
2022/01/27 03:57:54;;;;;;;43.05;12.63;;;-1.00;99.90;;;;;;5050404;28;20113;-84
2022/01/27 04:00:20;;;;;;;42.25;13.02;;;-1.00;99.90;;;;;;5033778;28;20025;-84
2022/01/27 04:05:49;;;;;;;44.08;12.68;;;-0.90;99.90;;;;;;5040297;28;20045;-84
2022/01/27 04:08:19;;;;;;;36.78;11.95;;;-0.90;99.90;;;;;;5081254;28;20024;-84
2022/01/27 04:10:45;;;;;;;43.08;13.07;;;-0.90;99.90;;;;;;5074638;28;20449;-84
2022/01/27 04:13:11;;;;;;;40.85;12.73;;;-0.90;99.90;;;;;;5053585;28;20033;-84
2022/01/27 04:15:42;;;;;;;37.55;12.05;;;-0.90;99.90;;;;;;5053523;28;20082;-84
2022/01/27 04:18:11;;;;;;;35.65;11.90;;;-0.90;99.90;;;;;;5071330;28;20055;-84
2022/01/27 04:20:41;;;;;;;38.90;10.88;;;-0.90;99.90;;;;;;5071576;28;20590;-84
2022/01/27 04:23:08;;;;;;;35.28;10.77;;;-0.90;99.90;;;;;;5057442;28;20028;-84
2022/01/27 04:25:38;;;;;;;50.63;12.80;;;-0.90;99.90;;;;;;5073572;28;20443;-84
2022/01/27 04:28:08;;;;;;;38.33;11.60;;;-0.90;99.90;;;;;;5055936;28;20028;-84
2022/01/27 04:30:34;;;;;;;46.53;12.85;;;-0.90;99.90;;;;;;5054343;28;20173;-84
2022/01/27 04:33:05;;;;;;;36.53;11.65;;;-0.90;99.90;;;;;;5038780;28;20530;-84
2022/01/27 04:35:43;;;;;;;44.72;12.18;;;-0.90;99.90;;;;;;5019719;28;20066;-84
2022/01/27 04:48:47;;;;;;;37.83;11.35;;;-0.80;99.90;;;;;;5055673;28;20066;-84
2022/01/27 04:51:17;;;;;;;31.45;10.57;;;-0.80;99.90;;;;;;5021690;28;20116;-84
2022/01/27 04:56:42;;;;;;;36.25;10.77;;;-0.80;99.90;;;;;;5026991;28;20091;-84
2022/01/27 04:59:15;;;;;;;38.42;11.90;;;-0.80;99.90;;;;;;5050041;28;20036;-84
2022/01/27 05:01:56;;;;;;;39.20;11.50;;;-0.80;99.90;;;;;;5030868;28;20037;-84
2022/01/27 05:04:30;;;;;;;41.80;11.50;;;-0.80;99.90;;;;;;5037693;28;20048;-84
2022/01/27 05:06:56;;;;;;;41.70;11.15;;;-0.80;99.90;;;;;;5053033;28;20036;-84
2022/01/27 05:09:24;;;;;;;45.33;11.10;;;-0.80;99.90;;;;;;5019914;28;20028;-84
2022/01/27 05:14:26;;;;;;;41.72;12.27;;;-0.80;99.90;;;;;;5052317;28;20037;-84
2022/01/27 05:16:53;;;;;;;45.35;11.55;;;-0.80;99.90;;;;;;5034842;28;20036;-84
2022/01/27 05:19:19;;;;;;;46.22;12.45;;;-0.80;99.90;;;;;;5052373;28;20054;-84
2022/01/27 05:21:45;;;;;;;43.63;11.32;;;-0.80;99.90;;;;;;5052708;28;20103;-84
2022/01/27 05:24:12;;;;;;;43.30;12.13;;;-0.80;99.90;;;;;;5052395;28;20024;-84
2022/01/27 05:26:41;;;;;;;52.67;13.27;;;-0.80;99.90;;;;;;5036238;28;20039;-84
2022/01/27 05:29:10;;;;;;;44.45;11.82;;;-0.70;99.90;;;;;;5035963;28;20045;-85
2022/01/27 05:31:40;;;;;;;35.95;11.23;;;-0.70;99.90;;;;;;5032798;28;20023;-84
2022/01/27 05:34:06;;;;;;;39.35;11.00;;;-0.70;99.90;;;;;;5049420;28;20500;-84
2022/01/27 05:36:39;;;;;;;32.13;10.40;;;-0.70;99.90;;;;;;5052903;28;20044;-84
2022/01/27 05:39:08;;;;;;;32.13;10.90;;;-0.70;99.90;;;;;;5016644;28;20043;-84
2022/01/27 05:41:37;;;;;;;34.53;9.93;;;-0.70;99.90;;;;;;5043866;28;20029;-84
2022/01/27 05:44:13;;;;;;;31.58;10.63;;;-0.70;99.90;;;;;;5051709;28;20041;-84
2022/01/27 05:46:42;;;;;;;35.55;10.20;;;-0.70;99.90;;;;;;5053362;28;20143;-84
2022/01/27 05:49:08;;;;;;;35.47;11.33;;;-0.70;99.90;;;;;;5035794;28;20509;-84
2022/01/27 05:51:34;;;;;;;34.28;10.20;;;-0.70;99.90;;;;;;5032049;28;20115;-84
2022/01/27 05:54:00;;;;;;;39.08;10.82;;;-0.60;99.90;;;;;;5015639;28;20028;-84
2022/01/27 05:56:29;;;;;;;37.80;9.52;;;-0.60;99.90;;;;;;5025581;28;20531;-84
2022/01/27 05:58:55;;;;;;;30.20;9.60;;;-0.60;99.90;;;;;;5014245;28;20460;-83
2022/01/27 06:01:21;;;;;;;33.95;10.82;;;-0.60;99.90;;;;;;5015473;28;20438;-84
2022/01/27 06:03:46;;;;;;;25.98;9.43;;;-0.60;99.90;;;;;;5034894;28;20040;-84
2022/01/27 06:06:12;;;;;;;29.55;10.77;;;-0.60;99.90;;;;;;5069546;28;20029;-85
2022/01/27 06:08:38;;;;;;;34.58;10.45;;;-0.60;99.90;;;;;;5018483;28;20036;-84
2022/01/27 06:11:10;;;;;;;33.40;10.10;;;-0.60;99.90;;;;;;5052029;28;20064;-84
2022/01/27 06:13:43;;;;;;;41.42;11.63;;;-0.60;99.90;;;;;;5052507;28;20105;-85
2022/01/27 06:16:12;;;;;;;30.38;10.57;;;-0.60;99.90;;;;;;5036114;28;20036;-85
2022/01/27 06:18:38;;;;;;;27.77;10.32;;;-0.60;99.90;;;;;;5034610;28;20033;-84
2022/01/27 06:21:06;;;;;;;28.20;10.55;;;-0.50;99.90;;;;;;5051479;28;20032;-84
2022/01/27 06:23:34;;;;;;;28.30;9.88;;;-0.60;99.90;;;;;;5070553;28;20027;-84
2022/01/27 06:26:02;;;;;;;29.00;9.30;;;-0.50;99.90;;;;;;5058371;28;20025;-84
2022/01/27 06:28:28;;;;;;;32.83;10.32;;;-0.50;99.90;;;;;;5041398;28;20036;-84
2022/01/27 06:30:53;;;;;;;40.30;12.32;;;-0.50;99.90;;;;;;5041574;28;20507;-84
2022/01/27 06:33:19;;;;;;;35.40;10.88;;;-0.50;99.90;;;;;;5038042;28;20051;-84
2022/01/27 06:35:48;;;;;;;30.98;9.07;;;-0.50;99.90;;;;;;5034542;28;20037;-84
2022/01/27 06:38:20;;;;;;;33.05;9.68;;;-0.50;99.90;;;;;;5027105;28;20048;-84
2022/01/27 06:40:46;;;;;;;32.00;10.43;;;-0.50;99.90;;;;;;5022470;28;20436;-84
2022/01/27 06:43:22;;;;;;;28.20;9.20;;;-0.50;99.90;;;;;;5041401;28;20028;-84
2022/01/27 06:45:54;;;;;;;29.73;9.77;;;-0.50;99.90;;;;;;5041188;28;20048;-84
2022/01/27 06:48:26;;;;;;;31.60;10.70;;;-0.50;99.90;;;;;;5037234;28;20040;-84
2022/01/27 06:50:56;;;;;;;29.38;9.88;;;-0.40;99.90;;;;;;5030682;28;20025;-84
2022/01/27 06:53:28;;;;;;;28.80;9.00;;;-0.40;99.90;;;;;;5041513;28;20028;-84
2022/01/27 06:55:54;;;;;;;27.38;9.07;;;-0.40;99.90;;;;;;5025737;28;20287;-84
2022/01/27 06:58:20;;;;;;;35.55;10.40;;;-0.40;99.90;;;;;;5024711;28;20021;-84
2022/01/27 07:00:46;;;;;;;35.40;11.13;;;-0.40;99.90;;;;;;5057968;28;20038;-84
2022/01/27 07:03:12;;;;;;;29.77;10.60;;;-0.40;99.90;;;;;;5024910;28;20115;-84
2022/01/27 07:05:39;;;;;;;31.33;10.13;;;-0.40;99.90;;;;;;5038345;28;20028;-84
2022/01/27 07:08:05;;;;;;;29.85;9.43;;;-0.40;99.90;;;;;;5037973;28;20033;-84
2022/01/27 07:10:30;;;;;;;27.17;10.13;;;-0.40;99.90;;;;;;5021500;28;20444;-84
2022/01/27 07:12:59;;;;;;;26.15;9.73;;;-0.40;99.90;;;;;;5030153;28;20037;-84
2022/01/27 07:15:30;;;;;;;30.23;10.18;;;-0.40;99.90;;;;;;5038933;28;20036;-84
2022/01/27 07:17:56;;;;;;;31.08;11.40;;;-0.40;99.90;;;;;;5034284;28;20116;-85
2022/01/27 07:20:21;;;;;;;33.92;10.27;;;-0.30;99.90;;;;;;5072638;28;20371;-83
2022/01/27 07:22:47;;;;;;;23.85;8.40;;;-0.30;99.90;;;;;;5041173;28;20044;-83
2022/01/27 07:25:20;;;;;;;41.90;10.68;;;-0.40;99.90;;;;;;5057628;28;20025;-82
2022/01/27 07:27:46;;;;;;;32.28;9.82;;;-0.30;99.90;;;;;;5042716;28;20028;-82
2022/01/27 07:30:15;;;;;;;31.75;10.35;;;-0.30;99.90;;;;;;5057569;28;20032;-83
2022/01/27 07:32:44;;;;;;;31.15;10.45;;;-0.30;99.90;;;;;;5041088;28;20085;-82
2022/01/27 07:35:16;;;;;;;36.83;10.60;;;-0.30;99.90;;;;;;5040413;28;20075;-82
2022/01/27 07:37:42;;;;;;;38.05;10.65;;;-0.30;99.90;;;;;;5038133;28;20638;-83
2022/01/27 07:40:10;;;;;;;37.17;9.75;;;-0.30;99.90;;;;;;5037919;28;20020;-83
2022/01/27 07:42:36;;;;;;;34.97;10.85;;;-0.20;99.90;;;;;;5054553;28;20032;-82
2022/01/27 07:45:03;;;;;;;35.22;11.77;;;-0.20;99.90;;;;;;5054435;28;20086;-82
2022/01/27 07:47:28;;;;;;;38.10;10.35;;;-0.20;99.90;;;;;;5053582;28;20127;-82
2022/01/27 07:50:00;;;;;;;29.80;9.27;;;-0.20;99.90;;;;;;5037562;28;20131;-82
2022/01/27 07:52:26;;;;;;;38.70;10.80;;;-0.20;99.90;;;;;;5053933;28;20064;-82
2022/01/27 07:54:52;;;;;;;35.38;11.95;;;-0.30;99.90;;;;;;5037592;28;20053;-82
2022/01/27 07:57:18;;;;;;;28.77;9.30;;;-0.20;99.90;;;;;;5020688;28;20028;-82
2022/01/27 07:59:50;;;;;;;39.83;10.80;;;-0.30;99.90;;;;;;5037500;28;20079;-82
2022/01/27 08:02:16;;;;;;;30.00;9.48;;;-0.30;99.90;;;;;;5024140;28;20436;-82
2022/01/27 08:04:42;;;;;;;37.65;11.07;;;-0.30;99.90;;;;;;5025171;28;20029;-82
2022/01/27 08:07:10;;;;;;;31.23;9.30;;;-0.30;99.90;;;;;;5053173;28;20029;-82
2022/01/27 08:09:36;;;;;;;34.97;9.50;;;-0.30;99.90;;;;;;5017790;28;20816;-83
2022/01/27 08:12:01;;;;;;;31.25;9.93;;;-0.30;99.90;;;;;;5039713;28;20140;-83
2022/01/27 08:14:27;;;;;;;36.08;9.65;;;-0.30;99.90;;;;;;5053647;28;20033;-82
2022/01/27 08:16:52;;;;;;;30.42;9.18;;;-0.30;99.90;;;;;;5020472;28;20477;-82
2022/01/27 08:19:18;;;;;;;29.50;8.68;;;-0.30;99.90;;;;;;5071863;28;20083;-83
2022/01/27 08:21:44;;;;;;;28.20;8.85;;;-0.30;99.90;;;;;;5037135;28;20028;-83
2022/01/27 08:24:10;;;;;;;31.83;9.05;;;-0.30;99.90;;;;;;5036956;28;20024;-83
2022/01/27 08:26:40;;;;;;;33.90;10.05;;;-0.30;99.90;;;;;;5037036;28;20113;-82
2022/01/27 08:29:13;;;;;;;31.77;9.43;;;-0.30;99.90;;;;;;5053018;28;20028;-83
2022/01/27 08:32:02;;;;;;;39.58;9.93;;;-0.30;99.90;;;;;;5071805;28;20040;-83
2022/01/27 08:34:41;;;;;;;39.65;9.70;;;-0.30;99.90;;;;;;5071102;28;20032;-83
2022/01/27 08:37:13;;;;;;;28.63;9.13;;;-0.30;99.90;;;;;;5053163;28;20029;-82
2022/01/27 08:39:40;;;;;;;36.13;9.98;;;-0.30;99.90;;;;;;5053016;28;20104;-82
2022/01/27 08:42:07;;;;;;;36.80;9.88;;;-0.30;99.90;;;;;;5036369;28;20037;-83
2022/01/27 08:44:37;;;;;;;34.25;10.15;;;-0.30;99.90;;;;;;5035452;28;20044;-83
2022/01/27 08:47:05;;;;;;;28.45;10.00;;;-0.30;99.90;;;;;;5052094;28;20029;-82
2022/01/27 08:49:31;;;;;;;30.35;8.98;;;-0.30;99.90;;;;;;5036136;28;20035;-83
2022/01/27 08:51:57;;;;;;;32.50;9.18;;;-0.30;99.90;;;;;;5049328;23;20038;-81
2022/01/27 08:54:24;;;;;;;28.73;8.88;;;-0.30;99.90;;;;;;4979617;28;20061;-81
2022/01/27 08:56:53;;;;;;;26.70;8.32;;;-0.30;99.90;;;;;;5011009;28;20038;-80
2022/01/27 08:59:18;;;;;;;26.52;8.77;;;-0.30;99.90;;;;;;5029404;28;20083;-80
2022/01/27 09:01:48;;;;;;;30.08;8.43;;;-0.30;99.90;;;;;;5030499;28;20025;-80
2022/01/27 09:04:14;;;;;;;32.75;9.25;;;-0.30;99.90;;;;;;4997932;28;20510;-81
2022/01/27 09:06:39;;;;;;;26.15;8.98;;;-0.30;99.90;;;;;;5030358;28;20033;-81
2022/01/27 09:09:05;;;;;;;25.40;8.25;;;-0.30;99.90;;;;;;5013890;28;20033;-82
2022/01/27 09:11:46;;;;;;;27.20;8.57;;;-0.30;99.90;;;;;;5023601;28;20014;-82
2022/01/27 09:14:13;;;;;;;;;;;-0.20;99.90;;;;;;4995993;28;20034;-81
2022/01/27 09:16:39;;;;;;;24.92;8.00;;;-0.20;99.90;;;;;;4994052;28;20395;-80
2022/01/27 09:19:05;;;;;;;24.83;7.70;;;-0.20;99.90;;;;;;5016892;28;20838;-80
2022/01/27 09:21:45;;;;;;;26.55;8.27;;;-0.20;99.90;;;;;;5029842;28;20037;-82
2022/01/27 09:24:19;;;;;;;28.35;8.77;;;-0.20;99.90;;;;;;5000302;28;20121;-80
2022/01/27 09:29:30;;;;;;;25.83;8.35;;;-0.20;99.90;;;;;;5011554;28;20076;-81
2022/01/27 09:31:58;;;;;;;29.02;9.57;;;-0.20;99.90;;;;;;4993889;28;20439;-81
2022/01/27 09:34:24;;;;;;;23.33;8.32;;;-0.20;99.90;;;;;;4994126;28;20034;-81
2022/01/27 09:36:50;;;;;;;26.15;9.85;;;-0.30;99.90;;;;;;4993580;28;20034;-81
2022/01/27 09:39:19;;;;;;;29.30;8.80;;;-0.30;99.90;;;;;;4977521;28;20033;-81
2022/01/27 09:41:45;;;;;;;23.60;8.32;;;-0.30;99.90;;;;;;4977815;28;20053;-82
2022/01/27 09:44:13;;;;;;;24.52;8.30;;;-0.20;99.90;;;;;;5009894;28;20029;-82
2022/01/27 09:46:46;;;;;;;29.13;8.80;;;-0.20;99.90;;;;;;5009676;28;20034;-81
2022/01/27 09:49:17;;;;;;;31.02;9.13;;;-0.20;99.90;;;;;;4994158;28;20085;-81
2022/01/27 09:51:45;;;;;;;28.40;9.35;;;-0.20;99.90;;;;;;4993986;28;20073;-81
2022/01/27 09:54:23;;;;;;;32.25;8.25;;;-0.20;99.90;;;;;;4977779;28;20121;-81
2022/01/27 09:56:56;;;;;;;27.02;8.07;;;-0.20;99.90;;;;;;4993557;28;20033;-81
2022/01/27 09:59:23;;;;;;;26.13;8.82;;;-0.20;99.90;;;;;;5013240;28;20025;-82
2022/01/27 10:01:58;;;;;;;28.42;8.68;;;-0.20;99.90;;;;;;4996763;28;20033;-81
2022/01/27 10:04:41;;;;;;;27.98;8.80;;;-0.20;99.90;;;;;;5012580;28;20542;-81
2022/01/27 10:07:14;;;;;;;32.72;10.20;;;-0.20;99.90;;;;;;5009382;28;20091;-80
2022/01/27 10:09:40;;;;;;;30.75;8.88;;;-0.20;99.90;;;;;;5015041;28;20021;-81
2022/01/27 10:12:06;;;;;;;34.65;9.90;;;-0.20;99.90;;;;;;5012739;28;20041;-81
2022/01/27 10:14:38;;;;;;;30.77;10.20;;;-0.30;99.90;;;;;;5012845;28;20030;-81
2022/01/27 10:17:10;;;;;;;33.10;10.10;;;-0.20;99.90;;;;;;5028873;28;20025;-81
2022/01/27 10:19:36;;;;;;;31.80;9.10;;;-0.20;99.90;;;;;;5012986;28;20026;-81
2022/01/27 10:22:06;;;;;;;32.90;9.20;;;-0.20;99.90;;;;;;5012609;28;20112;-81
2022/01/27 10:24:39;;;;;;;32.80;8.98;;;-0.20;99.90;;;;;;5029097;28;20427;-81
2022/01/27 10:27:30;;;;;;;35.67;10.75;;;-0.10;99.90;;;;;;5028911;28;20026;-81
2022/01/27 10:32:43;;;;;;;28.25;8.85;;;-0.10;99.90;;;;;;5013092;28;20103;-82
2022/01/27 10:35:12;;;;;;;34.25;8.77;;;0.00;99.90;;;;;;5029337;28;20423;-81
2022/01/27 10:37:59;;;;;;;29.30;9.50;;;0.00;99.90;;;;;;5012712;28;20049;-81
2022/01/27 10:40:43;;;;;;;29.35;8.95;;;0.00;99.90;;;;;;5029778;28;20021;-82
2022/01/27 10:43:23;;;;;;;29.42;9.63;;;0.00;99.90;;;;;;5028846;28;20029;-82
2022/01/27 10:46:08;;;;;;;37.33;10.60;;;0.00;99.90;;;;;;5011907;28;20403;-83
2022/01/27 10:49:12;;;;;;;35.40;9.73;;;0.00;99.90;;;;;;4997677;28;20120;-83
2022/01/27 10:51:51;;;;;;;30.02;9.80;;;0.00;99.90;;;;;;5028948;28;20061;-83
2022/01/27 10:54:48;;;;;;;29.23;9.63;;;0.00;99.90;;;;;;5009290;28;20026;-82
2022/01/27 10:57:14;;;;;;;32.15;9.98;;;0.10;99.90;;;;;;5008783;28;20118;-83
2022/01/27 10:59:42;;;;;;;32.50;9.68;;;0.10;99.90;;;;;;5018037;28;20113;-83
2022/01/27 11:02:12;;;;;;;28.45;9.80;;;0.10;99.90;;;;;;5028565;28;20465;-82
2022/01/27 11:04:40;;;;;;;;;;;0.10;99.90;;;;;;5014295;28;20804;-83
2022/01/27 11:07:11;;;;;;;34.58;9.18;;;0.20;99.90;;;;;;4992553;28;20368;-82
2022/01/27 11:09:43;;;;;;;30.27;9.75;;;0.20;99.90;;;;;;4993490;28;20044;-81
2022/01/27 11:12:14;;;;;;;31.85;10.10;;;0.20;99.90;;;;;;4997095;28;20120;-82
2022/01/27 11:14:44;;;;;;;31.17;9.07;;;0.20;99.90;;;;;;5002728;28;20030;-82
2022/01/27 11:17:19;;;;;;;26.95;9.68;;;0.30;99.90;;;;;;5019042;28;20064;-83
2022/01/27 11:27:31;;;;;;;26.88;8.95;;;0.20;99.90;;;;;;5012751;28;20125;-82
2022/01/27 11:30:12;;;;;;;32.30;10.65;;;0.30;99.90;;;;;;5007601;28;20083;-82
2022/01/27 11:32:57;;;;;;;;;;;0.20;99.90;;;;;;5015645;28;20052;-82
2022/01/27 11:35:28;;;;;;;31.55;9.13;;;0.30;99.90;;;;;;5031923;28;20511;-83
2022/01/27 11:37:57;;;;;;;28.40;8.95;;;0.30;99.90;;;;;;4999664;28;20045;-83
2022/01/27 11:40:44;;;;;;;30.30;9.43;;;0.30;99.90;;;;;;5032041;28;20029;-82
2022/01/27 11:43:15;;;;;;;29.05;9.85;;;0.30;99.90;;;;;;5002577;28;20033;-83
2022/01/27 11:45:54;;;;;;;33.15;10.10;;;0.30;99.90;;;;;;5031860;28;20084;-82
2022/01/27 11:48:26;;;;;;;31.17;9.60;;;0.40;99.90;;;;;;4999184;28;20124;-82
2022/01/27 11:51:18;;;;;;;35.03;10.73;;;0.40;99.90;;;;;;5033606;28;20041;-82
2022/01/27 11:53:52;;;;;;;32.97;10.75;;;0.40;99.90;;;;;;5018824;28;20040;-82
2022/01/27 11:56:23;;;;;;;31.38;10.23;;;0.40;99.90;;;;;;5034915;28;20021;-83
2022/01/27 11:59:13;;;;;;;29.25;9.63;;;0.40;99.90;;;;;;5034766;28;20112;-82
2022/01/27 12:01:38;;;;;;;30.77;10.02;;;0.40;99.90;;;;;;5034907;28;20032;-82
2022/01/27 12:04:07;;;;;;;30.27;9.65;;;0.40;99.90;;;;;;5017844;28;20037;-83
2022/01/27 12:06:37;;;;;;;29.65;9.80;;;0.40;99.90;;;;;;5034587;28;20029;-82
2022/01/27 12:09:21;;;;;;;30.60;10.27;;;0.40;99.90;;;;;;5018626;28;20029;-82
2022/01/27 12:11:49;;;;;;;41.20;9.30;;;0.40;99.90;;;;;;5034656;28;20075;-81
2022/01/27 12:14:26;;;;;;;31.25;9.57;;;0.40;99.90;;;;;;5034301;28;20033;-82
2022/01/27 12:17:10;;;;;;;32.80;10.30;;;0.40;99.90;;;;;;5018313;28;20037;-82
2022/01/27 12:19:47;;;;;;;34.78;11.10;;;0.40;99.90;;;;;;5034927;28;20028;-83
2022/01/27 12:22:14;;;;;;;36.88;11.75;;;0.40;99.90;;;;;;5017169;28;20028;-82
2022/01/27 12:25:06;;;;;;;32.72;11.27;;;0.40;99.90;;;;;;5018252;28;20079;-82
2022/01/27 12:27:39;;;;;;;33.78;10.88;;;0.40;99.90;;;;;;5034132;28;20083;-82
2022/01/27 12:30:10;;;;;;;37.47;11.95;;;0.40;99.90;;;;;;5018185;28;20033;-82
2022/01/27 12:32:35;;;;;;;;;;;0.50;99.90;;;;;;5034653;28;20094;-82
2022/01/27 12:35:15;;;;;;;38.15;10.15;;;0.50;99.90;;;;;;5017873;28;20374;-82
2022/01/27 12:37:50;;;;;;;32.40;9.50;;;0.60;99.90;;;;;;5017582;28;20112;-82
2022/01/27 12:40:33;;;;;;;33.88;10.55;;;0.60;99.90;;;;;;5034240;28;20078;-82
2022/01/27 12:43:07;;;;;;;31.55;10.32;;;0.60;99.90;;;;;;5003327;28;20487;-83
2022/01/27 12:45:35;;;;;;;28.90;8.95;;;0.50;99.90;;;;;;5018192;28;20040;-82
2022/01/27 12:48:12;;;;;;;41.22;10.15;;;0.60;99.90;;;;;;5033735;28;20036;-82
2022/01/27 12:50:39;;;;;;;30.83;10.52;;;0.70;99.90;;;;;;5033959;28;20039;-83
2022/01/27 12:53:11;;;;;;;35.60;11.57;;;0.70;99.90;;;;;;5033900;28;20056;-82
2022/01/27 12:55:42;;;;;;;42.17;11.18;;;0.70;99.90;;;;;;5033808;28;20044;-82
2022/01/27 12:58:12;;;;;;;31.55;10.02;;;0.70;99.90;;;;;;5001551;28;20029;-82
2022/01/27 13:00:49;;;;;;;32.97;9.07;;;0.70;99.90;;;;;;5033699;28;20419;-82
2022/01/27 13:03:16;;;;;;;33.03;10.05;;;0.70;99.90;;;;;;5033635;28;20026;-83
2022/01/27 13:05:49;;;;;;;30.60;10.60;;;0.70;99.90;;;;;;5033731;28;20479;-82
2022/01/27 13:08:17;;;;;;;36.05;10.93;;;0.70;99.90;;;;;;5017928;28;20399;-82
2022/01/27 13:11:11;;;;;;;30.65;9.75;;;0.70;99.90;;;;;;5017136;28;20052;-87
2022/01/27 13:13:40;;;;;;;38.58;9.98;;;0.60;99.90;;;;;;5028582;28;20033;-82
2022/01/27 13:16:17;;;;;;;35.33;11.20;;;0.60;99.90;;;;;;5014849;28;20029;-81
2022/01/27 13:19:00;;;;;;;29.85;10.45;;;0.60;99.90;;;;;;5023020;28;20013;-82
2022/01/27 13:21:33;;;;;;;33.17;10.15;;;0.60;99.90;;;;;;4998847;28;20029;-82
2022/01/27 13:24:11;;;;;;;30.92;10.07;;;0.60;99.90;;;;;;5014470;28;20025;-82
2022/01/27 13:26:43;;;;;;;31.42;9.82;;;0.60;99.90;;;;;;5032968;28;20029;-82
2022/01/27 13:29:10;;;;;;;26.58;9.15;;;0.60;99.90;;;;;;5019613;28;20571;-82
2022/01/27 13:31:36;;;;;;;35.92;10.77;;;0.60;99.90;;;;;;5032863;28;20086;-84
2022/01/27 13:34:03;;;;;;;31.92;10.90;;;0.60;99.90;;;;;;4998393;28;20149;-82
2022/01/27 13:36:36;;;;;;;31.65;11.63;;;0.60;99.90;;;;;;4996715;28;20037;-82
2022/01/27 13:39:13;;;;;;;33.15;10.00;;;0.60;99.90;;;;;;5000166;28;20068;-83
2022/01/27 13:41:42;;;;;;;30.95;10.43;;;0.60;99.90;;;;;;5001775;28;20487;-83
2022/01/27 13:44:14;;;;;;;33.13;9.63;;;0.60;99.90;;;;;;5032816;28;20041;-82
2022/01/27 13:46:54;;;;;;;36.33;9.82;;;0.60;99.90;;;;;;5032648;28;20142;-82
2022/01/27 13:49:27;;;;;;;31.05;9.70;;;0.60;99.90;;;;;;5016871;28;20399;-82
2022/01/27 13:51:56;;;;;;;29.75;9.55;;;0.60;99.90;;;;;;5032522;28;20091;-81